createdAt,value
2018-09-07T00:01:40.735Z,17.00
2018-09-07T00:03:11.808Z,14.60
2018-09-07T00:04:43.419Z,14.70
2018-09-07T00:06:14.938Z,15.30
2018-09-07T00:07:46.506Z,18.70
2018-09-07T00:09:18.076Z,16.70
2018-09-07T00:10:49.644Z,13.70
2018-09-07T00:12:21.216Z,13.60
2018-09-07T00:13:52.881Z,13.90
2018-09-07T00:15:24.352Z,15.20
2018-09-07T00:16:55.918Z,13.90
2018-09-07T00:18:27.485Z,13.40
2018-09-07T00:19:59.054Z,16.10
2018-09-07T00:21:30.623Z,15.20
2018-09-07T00:23:02.191Z,13.90
2018-09-07T00:24:33.759Z,14.20
2018-09-07T00:26:05.434Z,15.10
2018-09-07T00:27:36.896Z,15.80
2018-09-07T00:29:08.466Z,16.80
2018-09-07T00:30:40.035Z,17.10
2018-09-07T00:32:11.803Z,13.40
2018-09-07T00:33:43.171Z,15.90
2018-09-07T00:35:14.756Z,16.80
2018-09-07T00:36:46.311Z,19.90
2018-09-07T00:38:17.878Z,15.80
2018-09-07T00:39:49.444Z,18.70
2018-09-07T00:41:21.013Z,17.00
2018-09-07T00:42:52.583Z,17.60
2018-09-07T00:44:24.250Z,15.80
2018-09-07T00:45:55.720Z,12.40
2018-09-07T00:47:27.287Z,12.60
2018-09-07T00:48:58.857Z,12.10
2018-09-07T00:50:30.524Z,11.70
2018-09-07T00:52:01.992Z,9.30
2018-09-07T00:53:33.561Z,10.80
2018-09-07T00:55:05.129Z,9.40
2018-09-07T00:56:36.798Z,10.90
2018-09-07T00:58:08.271Z,13.40
2018-09-07T00:59:39.837Z,10.90
2018-09-07T01:01:11.404Z,9.50
2018-09-07T01:02:43.273Z,10.10
2018-09-07T01:04:14.540Z,13.40
2018-09-07T01:05:46.109Z,10.60
2018-09-07T01:07:17.677Z,11.10
2018-09-07T01:08:49.545Z,10.90
2018-09-07T01:10:20.815Z,12.00
2018-09-07T01:11:52.383Z,9.90
2018-09-07T01:13:23.951Z,9.50
2018-09-07T01:14:55.619Z,9.90
2018-09-07T01:16:27.089Z,9.40
2018-09-07T01:17:58.659Z,9.60
2018-09-07T01:19:30.225Z,12.20
2018-09-07T01:21:01.894Z,10.90
2018-09-07T01:22:33.361Z,11.20
2018-09-07T01:24:04.930Z,12.70
2018-09-07T01:25:36.500Z,14.20
2018-09-07T01:27:08.267Z,14.00
2018-09-07T01:28:39.635Z,15.70
2018-09-07T01:30:11.205Z,19.00
2018-09-07T01:31:42.774Z,16.80
2018-09-07T01:33:14.344Z,13.60
2018-09-07T01:34:45.909Z,16.00
2018-09-07T01:36:17.478Z,15.70
2018-09-07T01:37:49.046Z,16.40
2018-09-07T01:39:20.715Z,17.30
2018-09-07T01:40:52.727Z,20.40
2018-09-07T01:42:23.752Z,18.00
2018-09-07T01:43:55.321Z,20.90
2018-09-07T01:45:26.987Z,19.00
2018-09-07T01:46:58.456Z,21.90
2018-09-07T01:48:30.025Z,21.70
2018-09-07T01:50:01.595Z,18.20
2018-09-07T01:51:33.260Z,20.50
2018-09-07T01:53:04.729Z,19.30
2018-09-07T01:54:36.298Z,15.30
2018-09-07T01:56:07.866Z,20.30
2018-09-07T01:57:39.434Z,17.40
2018-09-07T01:59:11.002Z,20.50
2018-09-07T02:00:42.573Z,18.20
2018-09-07T02:02:14.139Z,17.40
2018-09-07T02:03:45.906Z,16.50
2018-09-07T02:05:17.276Z,16.60
2018-09-07T02:06:48.843Z,15.50
2018-09-07T02:08:20.414Z,17.90
2018-09-07T02:09:52.079Z,17.00
2018-09-07T02:11:23.547Z,21.00
2018-09-07T02:12:55.116Z,20.40
2018-09-07T02:14:26.714Z,18.70
2018-09-07T02:15:58.352Z,22.20
2018-09-07T02:17:29.821Z,20.60
2018-09-07T02:19:01.387Z,21.30
2018-09-07T02:20:32.956Z,24.00
2018-09-07T02:22:04.793Z,21.30
2018-09-07T02:23:36.091Z,22.50
2018-09-07T02:25:07.688Z,20.70
2018-09-07T02:26:39.232Z,25.10
2018-09-07T02:28:10.895Z,25.30
2018-09-07T02:31:13.930Z,26.10
2018-09-07T02:32:45.503Z,23.30
2018-09-07T02:34:17.216Z,22.70
2018-09-07T02:35:48.634Z,21.40
2018-09-07T02:37:20.221Z,21.50
2018-09-07T02:38:51.793Z,20.90
2018-09-07T02:40:23.589Z,24.40
2018-09-07T02:41:54.906Z,22.70
2018-09-07T02:43:26.474Z,22.30
2018-09-07T02:44:58.041Z,23.50
2018-09-07T02:46:29.614Z,26.60
2018-09-07T02:48:01.176Z,24.10
2018-09-07T02:49:32.765Z,23.70
2018-09-07T02:51:04.313Z,25.40
2018-09-07T02:52:35.881Z,22.10
2018-09-07T02:54:07.449Z,21.00
2018-09-07T02:55:39.017Z,19.60
2018-09-07T02:57:10.585Z,19.00
2018-09-07T02:58:42.654Z,19.20
2018-09-07T03:00:13.721Z,20.50
2018-09-07T03:01:45.289Z,21.40
2018-09-07T03:03:16.857Z,21.50
2018-09-07T03:04:48.426Z,19.10
2018-09-07T03:06:19.998Z,25.20
2018-09-07T03:07:51.562Z,22.20
2018-09-07T03:09:23.131Z,20.20
2018-09-07T03:10:54.849Z,14.70
2018-09-07T03:12:26.270Z,13.30
2018-09-07T03:13:57.835Z,11.60
2018-09-07T03:15:29.403Z,12.90
2018-09-07T03:17:01.122Z,12.60
2018-09-07T03:18:32.538Z,9.90
2018-09-07T03:20:04.107Z,9.60
2018-09-07T03:21:35.675Z,12.80
2018-09-07T03:23:07.244Z,11.30
2018-09-07T03:24:38.811Z,11.30
2018-09-07T03:26:10.378Z,9.10
2018-09-07T03:27:41.947Z,11.60
2018-09-07T03:29:13.614Z,14.30
2018-09-07T03:30:45.082Z,12.70
2018-09-07T03:32:16.654Z,10.60
2018-09-07T03:33:48.219Z,13.00
2018-09-07T03:35:20.186Z,13.50
2018-09-07T03:36:51.353Z,14.90
2018-09-07T03:38:22.922Z,11.00
2018-09-07T03:39:54.488Z,14.60
2018-09-07T03:41:26.362Z,14.20
2018-09-07T03:42:57.624Z,13.00
2018-09-07T03:44:29.192Z,12.00
2018-09-07T03:46:00.761Z,10.90
2018-09-07T03:47:32.428Z,13.20
2018-09-07T03:49:03.897Z,10.70
2018-09-07T03:50:35.467Z,8.90
2018-09-07T03:52:07.032Z,13.30
2018-09-07T03:53:38.852Z,11.30
2018-09-07T03:55:10.168Z,9.10
2018-09-07T03:56:41.735Z,9.60
2018-09-07T03:58:13.303Z,10.60
2018-09-07T03:59:44.987Z,13.00
2018-09-07T04:01:16.441Z,10.50
2018-09-07T04:02:48.008Z,14.20
2018-09-07T04:04:19.589Z,13.80
2018-09-07T04:05:51.444Z,8.40
2018-09-07T04:07:22.711Z,9.70
2018-09-07T04:08:54.280Z,10.10
2018-09-07T04:10:25.847Z,8.90
2018-09-07T04:11:57.567Z,9.50
2018-09-07T04:13:28.983Z,9.80
2018-09-07T04:15:00.552Z,10.80
2018-09-07T04:16:32.119Z,10.30
2018-09-07T04:18:03.689Z,9.90
2018-09-07T04:19:35.256Z,9.70
2018-09-07T04:21:06.824Z,9.40
2018-09-07T04:22:38.393Z,10.00
2018-09-07T04:24:09.962Z,9.50
2018-09-07T04:25:41.733Z,10.80
2018-09-07T04:27:13.097Z,10.10
2018-09-07T04:28:44.665Z,14.00
2018-09-07T04:30:16.435Z,10.70
2018-09-07T04:31:47.802Z,10.40
2018-09-07T04:33:19.369Z,10.90
2018-09-07T04:34:51.241Z,11.80
2018-09-07T04:36:22.579Z,8.20
2018-09-07T04:37:54.100Z,10.20
2018-09-07T04:39:25.655Z,11.30
2018-09-07T04:40:57.273Z,10.00
2018-09-07T04:42:28.983Z,14.20
2018-09-07T04:44:00.349Z,11.10
2018-09-07T04:45:31.915Z,11.30
2018-09-07T04:47:03.484Z,11.00
2018-09-07T04:48:35.173Z,8.60
2018-09-07T04:50:06.623Z,11.20
2018-09-07T04:51:38.189Z,10.20
2018-09-07T04:53:09.756Z,7.70
2018-09-07T04:54:41.324Z,9.20
2018-09-07T04:56:12.891Z,11.40
2018-09-07T04:57:44.460Z,7.40
2018-09-07T04:59:16.028Z,11.00
2018-09-07T05:00:47.704Z,9.70
2018-09-07T05:02:19.209Z,9.10
2018-09-07T05:03:50.731Z,9.50
2018-09-07T05:05:22.301Z,9.20
2018-09-07T05:06:54.270Z,8.30
2018-09-07T05:08:25.437Z,7.60
2018-09-07T05:09:57.004Z,7.80
2018-09-07T05:11:28.573Z,7.60
2018-09-07T05:13:00.441Z,10.20
2018-09-07T05:14:31.712Z,6.60
2018-09-07T05:16:03.277Z,10.10
2018-09-07T05:17:34.845Z,8.70
2018-09-07T05:19:06.416Z,9.30
2018-09-07T05:20:37.982Z,10.50
2018-09-07T05:22:09.565Z,10.10
2018-09-07T05:23:41.422Z,9.80
2018-09-07T05:25:12.787Z,10.10
2018-09-07T05:26:44.254Z,12.60
2018-09-07T05:28:15.822Z,9.30
2018-09-07T05:29:47.392Z,12.30
2018-09-07T05:31:18.959Z,12.10
2018-09-07T05:34:22.096Z,11.90
2018-09-07T05:35:53.664Z,15.70
2018-09-07T05:37:25.533Z,13.90
2018-09-07T05:38:56.799Z,10.90
2018-09-07T05:40:28.370Z,16.10
2018-09-07T05:41:59.936Z,12.50
2018-09-07T05:43:31.604Z,16.80
2018-09-07T05:45:03.073Z,14.80
2018-09-07T05:46:34.643Z,15.90
2018-09-07T05:48:06.209Z,15.50
2018-09-07T05:49:37.840Z,14.30
2018-09-07T05:51:09.346Z,16.10
2018-09-07T05:52:40.914Z,15.10
2018-09-07T05:54:12.482Z,14.20
2018-09-07T05:55:44.050Z,13.80
2018-09-07T05:57:15.621Z,14.20
2018-09-07T05:58:47.186Z,15.30
2018-09-07T06:00:18.775Z,15.00
2018-09-07T06:01:50.524Z,18.40
2018-09-07T06:03:21.895Z,16.90
2018-09-07T06:06:25.035Z,15.70
2018-09-07T06:07:56.595Z,18.00
2018-09-07T06:09:28.164Z,16.10
2018-09-07T06:10:59.732Z,17.70
2018-09-07T06:12:31.300Z,16.20
2018-09-07T06:14:03.169Z,15.10
2018-09-07T06:15:34.437Z,18.70
2018-09-07T06:17:06.006Z,17.40
2018-09-07T06:18:37.573Z,17.20
2018-09-07T06:20:09.442Z,17.80
2018-09-07T06:21:40.711Z,15.00
2018-09-07T06:23:12.278Z,16.40
2018-09-07T06:24:43.847Z,16.20
2018-09-07T06:26:15.415Z,18.20
2018-09-07T06:27:47.005Z,18.70
2018-09-07T06:29:18.552Z,18.20
2018-09-07T06:30:50.119Z,18.80
2018-09-07T06:32:21.687Z,17.90
2018-09-07T06:33:53.255Z,24.20
2018-09-07T06:35:24.824Z,16.50
2018-09-07T06:36:56.406Z,16.40
2018-09-07T06:38:28.373Z,18.20
2018-09-07T06:39:59.528Z,19.00
2018-09-07T06:41:31.097Z,16.80
2018-09-07T06:43:02.666Z,17.70
2018-09-07T06:44:34.534Z,14.80
2018-09-07T06:46:05.803Z,18.00
2018-09-07T06:47:37.370Z,18.60
2018-09-07T06:49:08.940Z,19.00
2018-09-07T06:50:40.507Z,16.10
2018-09-07T06:52:12.136Z,16.50
2018-09-07T06:53:43.647Z,16.30
2018-09-07T06:55:15.211Z,17.00
2018-09-07T06:56:46.879Z,15.50
2018-09-07T06:58:18.348Z,17.40
2018-09-07T06:59:49.925Z,17.00
2018-09-07T07:01:21.484Z,17.40
2018-09-07T07:02:53.164Z,16.00
2018-09-07T07:04:24.621Z,17.90
2018-09-07T07:05:56.189Z,19.80
2018-09-07T07:07:27.759Z,16.20
2018-09-07T07:08:59.632Z,14.00
2018-09-07T07:10:30.897Z,16.00
2018-09-07T07:12:02.463Z,17.30
2018-09-07T07:13:34.030Z,17.70
2018-09-07T07:15:05.999Z,17.30
2018-09-07T07:16:37.166Z,18.10
2018-09-07T07:18:08.734Z,19.50
2018-09-07T07:19:40.312Z,17.90
2018-09-07T07:21:11.871Z,20.10
2018-09-07T07:22:43.439Z,18.40
2018-09-07T07:24:15.007Z,19.20
2018-09-07T07:25:46.575Z,15.70
2018-09-07T07:27:18.244Z,18.90
2018-09-07T07:28:49.715Z,18.00
2018-09-07T07:30:21.280Z,20.30
2018-09-07T07:31:52.847Z,20.80
2018-09-07T07:33:24.668Z,21.30
2018-09-07T07:34:55.983Z,22.40
2018-09-07T07:36:27.557Z,16.30
2018-09-07T07:37:59.120Z,19.30
2018-09-07T07:39:30.788Z,17.90
2018-09-07T07:41:02.256Z,19.30
2018-09-07T07:42:33.824Z,18.40
2018-09-07T07:44:05.392Z,18.00
2018-09-07T07:45:37.262Z,19.10
2018-09-07T07:47:08.528Z,19.90
2018-09-07T07:48:40.097Z,17.70
2018-09-07T07:50:11.664Z,19.20
2018-09-07T07:51:43.333Z,14.60
2018-09-07T07:53:14.805Z,19.70
2018-09-07T07:54:46.369Z,17.60
2018-09-07T07:56:17.936Z,18.00
2018-09-07T07:57:49.709Z,17.30
2018-09-07T07:59:21.073Z,16.90
2018-09-07T08:02:24.209Z,20.30
2018-09-07T08:05:27.448Z,20.70
2018-09-07T08:06:58.914Z,19.40
2018-09-07T08:08:30.486Z,16.20
2018-09-07T08:10:02.052Z,18.70
2018-09-07T08:11:34.019Z,17.90
2018-09-07T08:13:05.187Z,19.70
2018-09-07T08:14:36.755Z,17.20
2018-09-07T08:16:08.395Z,19.10
2018-09-07T08:17:39.893Z,15.90
2018-09-07T08:19:11.459Z,18.80
2018-09-07T08:20:43.122Z,21.70
2018-09-07T08:22:14.600Z,17.70
2018-09-07T08:23:46.165Z,17.90
2018-09-07T08:25:17.733Z,19.30
2018-09-07T08:26:49.301Z,15.10
2018-09-07T08:28:20.869Z,20.00
2018-09-07T08:29:52.538Z,19.50
2018-09-07T08:31:24.006Z,18.10
2018-09-07T08:32:55.688Z,16.50
2018-09-07T08:34:27.141Z,15.80
2018-09-07T08:35:58.810Z,16.60
2018-09-07T08:37:30.278Z,16.10
2018-09-07T08:39:01.846Z,18.00
2018-09-07T08:40:33.506Z,16.40
2018-09-07T08:42:05.283Z,15.20
2018-09-07T08:43:36.550Z,15.90
2018-09-07T08:45:08.121Z,16.70
2018-09-07T08:46:39.686Z,16.50
2018-09-07T08:48:11.656Z,18.60
2018-09-07T08:49:42.825Z,17.30
2018-09-07T08:51:14.391Z,16.30
2018-09-07T08:52:45.960Z,18.30
2018-09-07T08:54:17.712Z,15.90
2018-09-07T08:55:49.097Z,16.60
2018-09-07T08:57:20.663Z,16.90
2018-09-07T09:00:23.912Z,17.10
2018-09-07T09:01:55.368Z,18.90
2018-09-07T09:03:26.937Z,16.10
2018-09-07T09:04:58.505Z,19.30
2018-09-07T09:06:30.173Z,18.60
2018-09-07T09:08:01.645Z,16.30
2018-09-07T09:09:33.211Z,19.30
2018-09-07T09:11:04.778Z,16.40
2018-09-07T09:12:36.645Z,18.40
2018-09-07T09:14:07.913Z,20.50
2018-09-07T09:15:39.484Z,18.20
2018-09-07T09:17:11.050Z,16.60
2018-09-07T09:18:42.918Z,17.30
2018-09-07T09:20:14.187Z,19.80
2018-09-07T09:21:45.753Z,16.30
2018-09-07T09:23:17.321Z,16.70
2018-09-07T09:24:49.039Z,16.00
2018-09-07T09:26:20.457Z,17.10
2018-09-07T09:27:52.329Z,17.60
2018-09-07T09:29:23.594Z,16.70
2018-09-07T09:30:55.466Z,16.90
2018-09-07T09:32:26.730Z,17.60
2018-09-07T09:33:58.302Z,20.00
2018-09-07T09:35:29.866Z,17.30
2018-09-07T09:37:01.691Z,18.00
2018-09-07T09:38:33.003Z,16.90
2018-09-07T09:40:04.571Z,17.30
2018-09-07T09:41:36.142Z,16.90
2018-09-07T09:43:08.008Z,16.60
2018-09-07T09:44:39.275Z,18.60
2018-09-07T09:46:10.843Z,17.10
2018-09-07T09:47:42.412Z,17.20
2018-09-07T09:49:13.979Z,17.20
2018-09-07T09:50:45.552Z,16.10
2018-09-07T09:52:17.116Z,14.90
2018-09-07T09:53:48.685Z,17.10
2018-09-07T09:55:20.253Z,13.80
2018-09-07T09:56:51.824Z,16.00
2018-09-07T09:58:23.468Z,14.50
2018-09-07T09:59:55.162Z,15.30
2018-09-07T10:02:58.749Z,16.00
2018-09-07T10:04:29.906Z,14.20
2018-09-07T10:06:01.943Z,17.80
2018-09-07T10:07:32.851Z,14.60
2018-09-07T10:09:04.449Z,13.60
2018-09-07T10:10:35.939Z,14.10
2018-09-07T10:12:07.598Z,12.40
2018-09-07T10:13:39.085Z,14.30
2018-09-07T10:15:10.811Z,12.70
2018-09-07T10:16:42.327Z,13.00
2018-09-07T10:18:14.087Z,10.90
2018-09-07T10:19:45.527Z,12.10
2018-09-07T10:21:17.255Z,12.10
2018-09-07T10:22:49.035Z,10.70
2018-09-07T10:24:20.093Z,10.20
2018-09-07T10:25:51.934Z,12.00
2018-09-07T10:27:23.248Z,12.80
2018-09-07T10:28:54.769Z,13.20
2018-09-07T10:30:26.537Z,13.40
2018-09-07T10:31:58.181Z,11.50
2018-09-07T10:33:29.831Z,12.80
2018-09-07T10:35:01.195Z,13.40
2018-09-07T10:36:33.181Z,10.50
2018-09-07T10:38:04.573Z,14.60
2018-09-07T10:41:07.665Z,11.80
2018-09-07T10:42:39.167Z,11.20
2018-09-07T10:44:10.542Z,12.00
2018-09-07T10:45:42.260Z,12.50
2018-09-07T10:47:13.954Z,13.50
2018-09-07T10:48:45.176Z,14.30
2018-09-07T10:50:16.925Z,11.60
2018-09-07T10:51:48.313Z,15.10
2018-09-07T10:53:20.211Z,14.10
2018-09-07T10:54:51.466Z,12.20
2018-09-07T10:56:23.646Z,12.30
2018-09-07T10:57:54.658Z,13.50
2018-09-07T10:59:27.304Z,12.60
2018-09-07T11:00:57.780Z,10.90
2018-09-07T11:02:29.713Z,11.80
2018-09-07T11:04:01.112Z,12.60
2018-09-07T11:05:32.682Z,13.70
2018-09-07T11:07:04.474Z,12.20
2018-09-07T11:08:35.976Z,11.40
2018-09-07T11:10:07.790Z,12.70
2018-09-07T11:11:39.228Z,11.90
2018-09-07T11:13:10.672Z,12.00
2018-09-07T11:14:42.266Z,14.70
2018-09-07T11:16:14.040Z,14.90
2018-09-07T11:17:45.962Z,15.10
2018-09-07T11:19:16.762Z,15.50
2018-09-07T11:22:20.486Z,14.90
2018-09-07T11:23:52.035Z,15.30
2018-09-07T11:25:23.056Z,14.40
2018-09-07T11:28:26.241Z,15.60
2018-09-07T11:29:57.698Z,15.00
2018-09-07T11:31:29.224Z,13.80
2018-09-07T11:33:01.038Z,15.10
2018-09-07T11:34:33.644Z,16.10
2018-09-07T11:36:04.377Z,13.50
2018-09-07T11:37:35.816Z,15.80
2018-09-07T11:39:07.421Z,17.30
2018-09-07T11:40:38.710Z,18.50
2018-09-07T11:42:10.746Z,21.00
2018-09-07T11:43:42.079Z,26.70
2018-09-07T11:45:13.876Z,23.50
2018-09-07T11:46:45.273Z,29.50
2018-09-07T11:48:17.117Z,30.20
2018-09-07T11:49:48.265Z,30.00
2018-09-07T11:51:19.891Z,33.30
2018-09-07T11:52:51.782Z,27.50
2018-09-07T11:54:23.193Z,23.40
2018-09-07T11:55:54.438Z,17.20
2018-09-07T11:57:26.252Z,17.10
2018-09-07T11:58:57.597Z,13.60
2018-09-07T12:00:29.224Z,14.20
2018-09-07T12:02:01.041Z,15.90
2018-09-07T12:03:32.637Z,14.80
2018-09-07T12:05:03.923Z,14.20
2018-09-07T12:06:35.686Z,14.60
2018-09-07T12:08:07.153Z,10.70
2018-09-07T12:11:10.681Z,12.90
2018-09-07T12:12:42.283Z,12.40
2018-09-07T12:15:45.107Z,10.70
2018-09-07T12:17:16.744Z,13.50
2018-09-07T12:18:48.468Z,11.80
2018-09-07T12:20:19.766Z,11.70
2018-09-07T12:23:23.523Z,11.60
2018-09-07T12:24:54.972Z,10.00
2018-09-07T12:26:26.679Z,11.00
2018-09-07T12:27:57.714Z,16.60
2018-09-07T12:29:29.920Z,10.40
2018-09-07T12:31:01.234Z,11.90
2018-09-07T12:32:32.662Z,11.80
2018-09-07T12:34:04.242Z,12.20
2018-09-07T12:35:35.577Z,9.90
2018-09-07T12:38:38.719Z,10.80
2018-09-07T12:40:10.238Z,12.20
2018-09-07T12:43:13.716Z,12.80
2018-09-07T12:44:45.241Z,13.40
2018-09-07T12:46:17.191Z,11.60
2018-09-07T12:47:48.709Z,13.30
2018-09-07T12:49:20.447Z,11.40
2018-09-07T12:50:51.986Z,13.30
2018-09-07T12:52:23.077Z,14.20
2018-09-07T12:53:54.775Z,11.50
2018-09-07T12:55:26.235Z,12.00
2018-09-07T12:56:57.830Z,13.70
2018-09-07T12:58:29.455Z,11.40
2018-09-07T13:00:01.086Z,11.40
2018-09-07T13:03:04.251Z,12.60
2018-09-07T13:04:35.581Z,12.50
2018-09-07T13:06:07.807Z,14.30
2018-09-07T13:07:38.738Z,13.70
2018-09-07T13:09:10.425Z,12.90
2018-09-07T13:12:13.866Z,11.40
2018-09-07T13:13:45.078Z,13.30
2018-09-07T13:15:17.040Z,12.30
2018-09-07T13:16:48.833Z,15.60
2018-09-07T13:19:51.789Z,12.30
2018-09-07T13:21:23.087Z,12.20
2018-09-07T13:22:54.562Z,11.40
2018-09-07T13:24:26.320Z,12.60
2018-09-07T13:25:57.664Z,12.00
2018-09-07T13:27:29.909Z,14.10
2018-09-07T13:29:00.919Z,13.80
2018-09-07T13:30:32.453Z,15.30
2018-09-07T13:32:04.259Z,14.60
2018-09-07T13:35:07.350Z,12.90
2018-09-07T13:36:38.889Z,12.20
2018-09-07T13:38:10.804Z,12.80
2018-09-07T13:41:13.882Z,14.00
2018-09-07T13:42:45.417Z,12.60
2018-09-07T13:44:16.993Z,12.80
2018-09-07T13:45:48.354Z,13.10
2018-09-07T13:47:20.471Z,15.50
2018-09-07T13:48:51.701Z,13.00
2018-09-07T13:50:23.114Z,15.00
2018-09-07T13:51:54.683Z,12.50
2018-09-07T13:53:27.295Z,13.40
2018-09-07T13:54:58.121Z,11.00
2018-09-07T13:56:29.610Z,13.70
2018-09-07T13:59:32.985Z,13.60
2018-09-07T14:01:04.077Z,12.20
2018-09-07T14:02:35.700Z,13.00
2018-09-07T14:04:07.631Z,11.40
2018-09-07T14:05:39.061Z,12.70
2018-09-07T14:08:41.982Z,11.90
2018-09-07T14:10:13.686Z,14.20
2018-09-07T14:13:16.947Z,12.00
2018-09-07T14:14:48.455Z,11.80
2018-09-07T14:16:20.000Z,10.10
2018-09-07T14:17:51.679Z,10.50
2018-09-07T14:20:54.845Z,12.10
2018-09-07T14:22:26.227Z,12.80
2018-09-07T14:23:57.811Z,12.50
2018-09-07T14:25:29.397Z,12.10
2018-09-07T14:27:01.130Z,11.20
2018-09-07T14:28:32.563Z,11.40
2018-09-07T14:31:35.732Z,13.90
2018-09-07T14:33:07.617Z,12.70
2018-09-07T14:34:38.898Z,11.00
2018-09-07T14:36:10.536Z,10.60
2018-09-07T14:39:13.853Z,13.20
2018-09-07T14:40:45.237Z,10.00
2018-09-07T14:43:48.406Z,11.30
2018-09-07T14:45:20.090Z,9.60
2018-09-07T14:48:23.160Z,10.50
2018-09-07T14:49:54.742Z,10.10
2018-09-07T14:51:26.970Z,10.70
2018-09-07T14:52:57.918Z,11.90
2018-09-07T14:54:29.549Z,11.00
2018-09-07T14:56:01.082Z,11.00
2018-09-07T14:57:33.420Z,11.50
2018-09-07T15:00:35.937Z,12.40
2018-09-07T15:03:39.221Z,12.40
2018-09-07T15:08:13.964Z,11.80
2018-09-07T15:09:45.497Z,11.70
2018-09-07T15:11:16.933Z,10.90
2018-09-07T15:12:49.263Z,10.60
2018-09-07T15:14:20.103Z,9.80
2018-09-07T15:15:51.939Z,8.90
2018-09-07T15:17:23.276Z,8.40
2018-09-07T15:18:54.859Z,9.50
2018-09-07T15:20:26.445Z,9.80
2018-09-07T15:21:58.131Z,9.30
2018-09-07T15:23:29.922Z,9.40
2018-09-07T15:25:01.405Z,9.50
2018-09-07T15:26:32.790Z,9.30
2018-09-07T15:28:04.524Z,8.30
2018-09-07T15:29:35.961Z,10.20
2018-09-07T15:32:39.133Z,7.80
2018-09-07T15:34:11.569Z,7.70
2018-09-07T15:35:43.723Z,8.20
2018-09-07T15:37:14.099Z,7.50
2018-09-07T15:38:45.683Z,7.60
2018-09-07T15:40:17.168Z,8.20
2018-09-07T15:43:20.241Z,7.20
2018-09-07T15:46:24.120Z,7.50
2018-09-07T15:47:55.000Z,5.50
2018-09-07T15:49:26.707Z,6.00
2018-09-07T15:50:58.783Z,7.00
2018-09-07T15:52:30.513Z,7.60
2018-09-07T15:54:01.358Z,7.90
2018-09-07T15:55:33.299Z,9.60
2018-09-07T15:57:04.527Z,8.40
2018-09-07T15:58:36.508Z,9.60
2018-09-07T16:01:39.946Z,7.90
2018-09-07T16:03:10.898Z,7.40
2018-09-07T16:04:42.620Z,7.60
2018-09-07T16:06:14.319Z,8.20
2018-09-07T16:07:45.672Z,6.60
2018-09-07T16:09:17.588Z,6.90
2018-09-07T16:10:49.206Z,6.00
2018-09-07T16:12:20.478Z,6.40
2018-09-07T16:13:52.060Z,6.60
2018-09-07T16:16:55.323Z,7.10
2018-09-07T16:18:26.831Z,8.90
2018-09-07T16:19:58.967Z,9.00
2018-09-07T16:23:01.675Z,7.50
2018-09-07T16:24:33.623Z,6.90
2018-09-07T16:27:36.290Z,8.10
2018-09-07T16:29:08.418Z,6.70
2018-09-07T16:30:40.030Z,8.10
2018-09-07T16:33:42.943Z,8.00
2018-09-07T16:35:14.519Z,8.00
2018-09-07T16:36:46.036Z,7.60
2018-09-07T16:38:17.403Z,7.90
2018-09-07T16:39:49.071Z,9.80
2018-09-07T16:41:20.831Z,7.30
2018-09-07T16:42:52.324Z,7.80
2018-09-07T16:44:24.110Z,7.60
2018-09-07T16:45:55.374Z,7.90
2018-09-07T16:47:27.445Z,7.90
2018-09-07T16:48:59.276Z,7.60
2018-09-07T16:50:30.253Z,7.80
2018-09-07T16:52:01.705Z,10.10
2018-09-07T16:55:05.073Z,8.40
2018-09-07T16:56:36.769Z,8.10
2018-09-07T16:58:08.048Z,8.80
2018-09-07T16:59:39.968Z,10.50
2018-09-07T17:01:11.494Z,7.40
2018-09-07T17:02:43.120Z,7.70
2018-09-07T17:04:14.536Z,7.50
2018-09-07T17:05:46.212Z,7.20
2018-09-07T17:07:18.362Z,7.70
2018-09-07T17:08:49.479Z,8.00
2018-09-07T17:10:21.013Z,7.90
2018-09-07T17:11:52.430Z,7.70
2018-09-07T17:13:24.123Z,7.90
2018-09-07T17:14:55.526Z,8.60
2018-09-07T17:16:27.276Z,7.50
2018-09-07T17:17:59.361Z,9.20
2018-09-07T17:19:30.521Z,8.20
2018-09-07T17:21:02.359Z,7.20
2018-09-07T17:22:33.603Z,7.70
2018-09-07T17:24:05.194Z,6.00
2018-09-07T17:25:37.669Z,7.00
2018-09-07T17:27:08.557Z,5.90
2018-09-07T17:28:40.099Z,6.60
2018-09-07T17:30:11.432Z,6.50
2018-09-07T17:33:15.468Z,6.80
2018-09-07T17:36:17.825Z,7.50
2018-09-07T17:37:49.394Z,7.40
2018-09-07T17:40:52.871Z,6.90
2018-09-07T17:43:56.290Z,5.80
2018-09-07T17:45:27.649Z,6.00
2018-09-07T17:46:58.969Z,7.50
2018-09-07T17:48:31.127Z,7.00
2018-09-07T17:50:02.172Z,6.30
2018-09-07T17:53:05.517Z,6.40
2018-09-07T17:54:36.806Z,6.80
2018-09-07T17:56:08.388Z,6.80
2018-09-07T17:57:39.974Z,7.10
2018-09-07T17:59:11.813Z,9.40
2018-09-07T18:00:43.148Z,6.80
2018-09-07T18:02:14.935Z,6.40
2018-09-07T18:03:46.521Z,6.80
2018-09-07T18:06:49.795Z,7.60
2018-09-07T18:08:21.078Z,6.60
2018-09-07T18:09:53.409Z,6.80
2018-09-07T18:11:24.451Z,7.00
2018-09-07T18:12:56.005Z,7.30
2018-09-07T18:14:27.418Z,6.20
2018-09-07T18:15:59.004Z,6.60
2018-09-07T18:17:30.895Z,5.90
2018-09-07T18:19:02.578Z,8.10
2018-09-07T18:20:33.763Z,6.40
2018-09-07T18:22:05.346Z,7.70
2018-09-07T18:23:36.934Z,7.00
2018-09-07T18:25:08.922Z,7.20
2018-09-07T18:26:40.102Z,7.00
2018-09-07T18:28:11.836Z,6.80
2018-09-07T18:29:43.595Z,6.70
2018-09-07T18:31:15.005Z,7.40
2018-09-07T18:34:18.025Z,6.70
2018-09-07T18:35:50.187Z,5.90
2018-09-07T18:38:53.182Z,7.40
2018-09-07T18:40:24.362Z,7.30
2018-09-07T18:41:55.946Z,7.00
2018-09-07T18:43:28.097Z,6.40
2018-09-07T18:44:59.215Z,6.70
2018-09-07T18:46:30.734Z,7.20
2018-09-07T18:48:02.282Z,6.80
2018-09-07T18:49:33.866Z,7.40
2018-09-07T18:52:37.134Z,10.60
2018-09-07T18:55:40.201Z,6.90
2018-09-07T18:57:11.788Z,6.50
2018-09-07T18:58:43.974Z,6.50
2018-09-07T19:01:46.534Z,6.50
2018-09-07T19:03:18.663Z,6.60
2018-09-07T19:04:49.803Z,7.50
2018-09-07T19:06:21.286Z,8.30
2018-09-07T19:10:56.133Z,6.50
2018-09-07T19:12:27.615Z,6.90
2018-09-07T19:13:59.197Z,6.90
2018-09-07T19:15:30.792Z,6.20
2018-09-07T19:17:03.979Z,6.70
2018-09-07T19:18:34.148Z,6.60
2018-09-07T19:20:05.529Z,7.50
2018-09-07T19:21:37.110Z,6.60
2018-09-07T19:24:40.381Z,6.40
2018-09-07T19:26:11.857Z,6.60
2018-09-07T19:27:44.183Z,7.60
2018-09-07T19:30:46.704Z,6.50
2018-09-07T19:32:18.183Z,9.00
2018-09-07T19:35:21.459Z,5.60
2018-09-07T19:36:53.670Z,8.00
2018-09-07T19:38:24.952Z,6.00
2018-09-07T19:39:56.090Z,6.70
2018-09-07T19:41:27.874Z,6.90
2018-09-07T19:44:31.040Z,7.10
2018-09-07T19:46:02.413Z,7.00
2018-09-07T19:47:33.994Z,9.10
2018-09-07T19:52:08.933Z,9.70
2018-09-07T19:53:40.338Z,8.80
2018-09-07T19:55:12.197Z,10.60
2018-09-07T19:56:43.776Z,8.20
2018-09-07T19:58:15.256Z,9.90
2018-09-07T19:59:46.630Z,13.00
2018-09-07T20:01:18.210Z,8.20
2018-09-07T20:02:49.790Z,8.40
2018-09-07T20:05:53.250Z,8.30
2018-09-07T20:07:24.526Z,8.50
2018-09-07T20:08:56.106Z,9.00
2018-09-07T20:10:27.683Z,11.30
2018-09-07T20:11:59.464Z,10.80
2018-09-07T20:13:30.840Z,10.70
2018-09-07T20:16:33.993Z,10.40
2018-09-07T20:18:05.721Z,9.80
2018-09-07T20:19:37.148Z,9.80
2018-09-07T20:21:08.727Z,9.20
2018-09-07T20:22:40.305Z,9.00
2018-09-07T20:24:11.981Z,8.60
2018-09-07T20:30:18.496Z,9.30
2018-09-07T20:31:49.966Z,11.60
2018-09-07T20:33:21.344Z,11.10
2018-09-07T20:36:25.132Z,11.90
2018-09-07T20:37:56.070Z,12.80
2018-09-07T20:39:27.644Z,12.90
2018-09-07T20:40:59.219Z,12.70
2018-09-07T20:42:31.838Z,14.00
2018-09-07T20:44:03.312Z,14.20
2018-09-07T20:45:33.944Z,13.90
2018-09-07T20:47:05.518Z,13.80
2018-09-07T20:48:37.831Z,14.20
2018-09-07T20:50:08.666Z,18.80
2018-09-07T20:51:40.241Z,15.60
2018-09-07T20:53:11.817Z,17.70
2018-09-07T20:54:43.488Z,16.70
2018-09-07T20:56:15.165Z,21.10
2018-09-07T20:57:47.042Z,17.70
2018-09-07T20:59:18.107Z,19.60
2018-09-07T21:00:49.983Z,19.30
2018-09-07T21:02:21.455Z,20.00
2018-09-07T21:03:53.030Z,20.70
2018-09-07T21:05:24.397Z,22.10
2018-09-07T21:08:27.793Z,21.80
2018-09-07T21:09:59.159Z,23.30
2018-09-07T21:11:30.686Z,22.40
2018-09-07T21:13:02.258Z,22.20
2018-09-07T21:14:33.930Z,25.50
2018-09-07T21:16:05.403Z,29.00
2018-09-07T21:17:36.974Z,27.10
2018-09-07T21:19:08.545Z,29.70
2018-09-07T21:20:40.219Z,27.00
2018-09-07T21:22:11.689Z,31.60
2018-09-07T21:23:43.259Z,27.40
2018-09-07T21:25:15.033Z,30.30
2018-09-07T21:26:46.752Z,31.50
2018-09-07T21:28:17.974Z,29.20
2018-09-07T21:29:49.545Z,34.00
2018-09-07T21:31:21.116Z,32.80
2018-09-07T21:34:24.359Z,33.20